createdAt,value
2018-07-19T19:07:22.645Z,74.10
2018-07-19T19:09:50.839Z,73.70
2018-07-19T19:12:18.992Z,76.30
2018-07-19T19:14:47.143Z,76.80
2018-07-19T19:17:15.316Z,80.70
2018-07-19T19:19:43.465Z,80.70
2018-07-19T19:22:11.617Z,82.50
2018-07-19T19:24:39.854Z,86.20
2018-07-19T19:27:08.042Z,87.20
2018-07-19T19:29:36.185Z,88.60
2018-07-19T19:32:04.377Z,89.50
2018-07-19T19:34:32.555Z,91.50
2018-07-19T19:37:00.732Z,91.30
2018-07-19T19:39:28.888Z,92.40
2018-07-19T19:41:57.069Z,93.10
2018-07-19T19:44:25.250Z,95.20
2018-07-19T19:46:53.449Z,95.60
2018-07-19T19:49:21.638Z,97.00
2018-07-19T19:51:49.804Z,98.20
2018-07-19T19:54:18.042Z,99.60
2018-07-19T19:56:46.177Z,99.90
2018-07-19T19:59:14.354Z,99.90
2018-07-19T20:01:42.558Z,99.90
2018-07-19T20:04:11.555Z,99.90
2018-07-19T20:06:41.288Z,99.90
2018-07-19T20:09:10.577Z,99.90
2018-07-19T20:11:38.825Z,99.90
2018-07-19T20:14:07.019Z,99.90
2018-07-19T20:16:35.245Z,99.90
2018-07-19T20:19:03.421Z,99.90
2018-07-19T20:21:31.711Z,99.90
2018-07-19T20:24:00.013Z,99.90
2018-07-19T20:26:28.225Z,99.90
2018-07-19T20:28:56.418Z,99.90
2018-07-19T20:31:24.836Z,99.90
2018-07-19T20:33:53.113Z,99.90
2018-07-19T20:36:21.291Z,99.90
2018-07-19T20:38:49.569Z,99.90
2018-07-19T20:41:17.765Z,99.90
2018-07-19T20:43:45.974Z,99.90
2018-07-19T20:46:14.149Z,99.90
2018-07-19T20:48:42.350Z,99.90
2018-07-19T20:51:10.592Z,99.90
2018-07-19T20:53:38.813Z,99.90
2018-07-19T20:56:06.975Z,99.90
2018-07-19T20:58:35.179Z,99.90
2018-07-19T21:01:03.583Z,99.90
2018-07-19T21:03:31.764Z,99.90
2018-07-19T21:05:59.948Z,99.90
2018-07-19T21:08:28.131Z,99.90
2018-07-19T21:10:56.305Z,99.90
2018-07-19T21:13:24.456Z,99.90
2018-07-19T21:15:52.609Z,99.90
2018-07-19T21:18:20.799Z,99.90
2018-07-19T21:20:48.957Z,99.90
2018-07-19T21:23:17.113Z,99.90
2018-07-19T21:25:45.277Z,99.90
2018-07-19T21:28:13.443Z,99.90
2018-07-19T21:30:41.620Z,99.90
2018-07-19T21:33:09.791Z,99.90
2018-07-19T21:35:38.527Z,99.90
2018-07-19T21:38:06.680Z,99.90
2018-07-19T21:40:34.843Z,99.90
2018-07-19T21:43:03.036Z,99.90
2018-07-19T21:45:31.193Z,99.90
2018-07-19T21:47:59.378Z,99.90
2018-07-19T21:50:27.568Z,99.90
2018-07-19T21:52:55.861Z,99.90
2018-07-19T21:55:24.015Z,99.90
2018-07-19T21:57:52.280Z,99.90
2018-07-19T22:00:20.433Z,99.90
2018-07-19T22:02:48.599Z,99.90
2018-07-19T22:05:16.761Z,99.90
2018-07-19T22:07:44.952Z,99.90
2018-07-19T22:10:13.121Z,99.90
2018-07-19T22:12:41.283Z,99.90
2018-07-19T22:15:10.269Z,99.90
2018-07-19T22:17:38.459Z,99.90
2018-07-19T22:20:06.652Z,99.90
2018-07-19T22:22:34.807Z,99.90
2018-07-19T22:25:04.006Z,99.90
2018-07-19T22:27:32.197Z,99.90
2018-07-19T22:30:00.369Z,99.90
2018-07-19T22:32:28.557Z,99.90
2018-07-19T22:34:56.825Z,99.90
2018-07-19T22:37:24.974Z,99.90
2018-07-19T22:39:53.125Z,99.90
2018-07-19T22:42:22.106Z,99.90
2018-07-19T22:44:50.245Z,99.90
2018-07-19T22:47:18.425Z,99.90
2018-07-19T22:49:46.569Z,99.90
2018-07-19T22:52:14.734Z,99.90
2018-07-19T22:54:42.893Z,99.90
2018-07-19T22:57:11.080Z,99.90
2018-07-19T22:59:39.236Z,99.90
2018-07-19T23:02:07.398Z,99.90
2018-07-19T23:04:35.552Z,99.90
2018-07-19T23:07:03.713Z,99.90
2018-07-19T23:09:31.858Z,99.90
2018-07-19T23:12:00.026Z,99.90
2018-07-19T23:14:28.197Z,99.90
2018-07-19T23:16:56.350Z,99.90
2018-07-19T23:19:24.496Z,99.90
2018-07-19T23:21:52.688Z,99.90
2018-07-19T23:24:20.847Z,99.90
2018-07-19T23:26:49.008Z,99.90
2018-07-19T23:29:17.153Z,99.90
2018-07-19T23:31:45.325Z,99.90
2018-07-19T23:34:13.467Z,99.90
2018-07-19T23:36:46.321Z,99.90
2018-07-19T23:39:19.008Z,99.90
2018-07-19T23:41:51.597Z,99.90
2018-07-19T23:44:25.154Z,99.90
2018-07-19T23:46:57.031Z,99.90
2018-07-19T23:49:25.188Z,99.90
2018-07-19T23:51:53.356Z,99.90
2018-07-19T23:54:21.511Z,99.90
2018-07-19T23:56:49.665Z,99.90
2018-07-19T23:59:17.830Z,99.90
